createdAt,value
2023-10-28T00:02:35.754Z,19.10
2023-10-28T00:05:21.469Z,17.90
2023-10-28T00:08:09.146Z,17.90
2023-10-28T00:10:54.972Z,17.90
2023-10-28T00:16:27.214Z,18.10
2023-10-28T00:19:12.886Z,17.70
2023-10-28T00:21:59.343Z,17.80
2023-10-28T00:27:33.557Z,18.10
2023-10-28T00:30:19.593Z,18.60
2023-10-28T00:33:05.430Z,17.70
2023-10-28T00:35:51.208Z,17.80
2023-10-28T00:38:37.316Z,17.70
2023-10-28T00:41:22.875Z,17.60
2023-10-28T00:46:55.233Z,17.80
2023-10-28T00:49:44.336Z,17.40
2023-10-28T00:52:30.712Z,17.50
2023-10-28T00:55:18.087Z,17.80
2023-10-28T00:58:04.117Z,17.90
2023-10-28T01:00:50.362Z,17.20
2023-10-28T01:03:36.318Z,18.40
2023-10-28T01:06:21.994Z,17.20
2023-10-28T01:09:09.855Z,17.30
2023-10-28T01:14:43.457Z,17.30
2023-10-28T01:17:31.127Z,17.60
2023-10-28T01:23:03.829Z,17.50
2023-10-28T01:25:49.967Z,18.30
2023-10-28T01:31:23.449Z,17.50
2023-10-28T01:36:57.602Z,17.70
2023-10-28T01:39:52.938Z,17.80
2023-10-28T01:42:39.239Z,17.20
2023-10-28T01:48:13.228Z,17.40
2023-10-28T01:56:31.381Z,17.30
2023-10-28T01:59:17.174Z,17.50
2023-10-28T02:02:04.359Z,17.10
2023-10-28T02:04:52.954Z,17.70
2023-10-28T02:07:39.630Z,17.30
2023-10-28T02:21:31.542Z,17.60
2023-10-28T02:32:39.691Z,17.70
2023-10-28T02:35:25.321Z,17.50
2023-10-28T02:38:11.886Z,16.90
2023-10-28T02:41:00.063Z,17.40
2023-10-28T02:46:34.090Z,17.50
2023-10-28T02:49:19.873Z,16.90
2023-10-28T02:52:06.505Z,17.00
2023-10-28T03:00:28.526Z,17.00
2023-10-28T03:03:14.430Z,17.50
2023-10-28T03:06:00.251Z,17.40
2023-10-28T03:08:46.198Z,17.40
2023-10-28T03:11:32.205Z,16.70
2023-10-28T03:14:18.540Z,17.30
2023-10-28T03:19:52.828Z,17.20
2023-10-28T03:22:39.499Z,17.20
2023-10-28T03:25:26.075Z,17.00
2023-10-28T03:28:12.250Z,16.70
2023-10-28T03:30:58.371Z,17.70
2023-10-28T03:36:30.536Z,17.20
2023-10-28T03:42:04.795Z,16.50
2023-10-28T03:44:50.932Z,17.00
2023-10-28T03:50:24.481Z,16.60
2023-10-28T03:53:10.412Z,16.70
2023-10-28T03:58:42.701Z,16.30
2023-10-28T04:01:28.743Z,17.70
2023-10-28T04:04:14.448Z,16.30
2023-10-28T04:07:00.539Z,16.80
2023-10-28T04:15:19.787Z,16.30
2023-10-28T04:18:05.752Z,16.40
2023-10-28T04:20:51.742Z,16.30
2023-10-28T04:23:37.572Z,17.10
2023-10-28T04:26:23.396Z,16.60
2023-10-28T04:29:09.951Z,16.70
2023-10-28T04:31:56.099Z,15.30
2023-10-28T04:34:54.506Z,16.50
2023-10-28T04:37:43.291Z,16.10
2023-10-28T04:40:28.962Z,15.60
2023-10-28T04:43:15.263Z,15.60
2023-10-28T04:46:01.323Z,15.20
2023-10-28T04:54:20.736Z,15.00
2023-10-28T04:57:06.413Z,15.30
2023-10-28T04:59:52.222Z,15.40
2023-10-28T05:02:38.054Z,15.50
2023-10-28T05:05:23.888Z,15.40
2023-10-28T05:08:09.989Z,14.90
2023-10-28T05:10:56.400Z,15.10
2023-10-28T05:16:29.588Z,14.90
2023-10-28T05:19:15.632Z,14.70
2023-10-28T05:22:03.996Z,15.10
2023-10-28T05:27:41.242Z,14.40
2023-10-28T05:30:27.769Z,14.70
2023-10-28T05:33:15.085Z,14.80
2023-10-28T05:36:01.068Z,14.70
2023-10-28T05:38:47.138Z,14.40
2023-10-28T05:41:33.237Z,14.20
2023-10-28T05:47:06.078Z,14.40
2023-10-28T05:49:51.702Z,13.90
2023-10-28T05:52:39.796Z,14.60
2023-10-28T05:55:25.457Z,14.20
2023-10-28T05:58:11.480Z,14.00
2023-10-28T06:01:00.504Z,14.20
2023-10-28T06:03:47.576Z,14.20
2023-10-28T06:06:33.444Z,14.00
2023-10-28T06:12:06.010Z,13.70
2023-10-28T06:14:52.315Z,14.20
2023-10-28T06:17:38.042Z,14.60
2023-10-28T06:20:24.247Z,14.50
2023-10-28T06:23:09.879Z,14.40
2023-10-28T06:25:56.413Z,14.50
2023-10-28T06:28:43.281Z,14.40
2023-10-28T06:34:15.762Z,14.30
2023-10-28T06:37:02.040Z,14.90
2023-10-28T06:39:49.727Z,14.90
2023-10-28T06:42:40.432Z,15.20
2023-10-28T06:48:12.477Z,17.20
2023-10-28T06:53:46.076Z,17.80
2023-10-28T06:59:17.860Z,16.90
2023-10-28T07:02:03.743Z,17.20
2023-10-28T07:04:49.765Z,17.50
2023-10-28T07:07:36.359Z,17.40
2023-10-28T07:10:23.478Z,17.40
2023-10-28T07:16:05.561Z,17.30
2023-10-28T07:18:51.611Z,17.30
2023-10-28T07:21:37.517Z,17.70
2023-10-28T07:24:23.337Z,18.40
2023-10-28T07:29:55.423Z,17.90
2023-10-28T07:32:41.892Z,18.10
2023-10-28T07:35:28.696Z,17.70
2023-10-28T07:38:18.822Z,17.80
2023-10-28T07:41:04.725Z,17.40
2023-10-28T07:43:50.391Z,17.90
2023-10-28T07:46:36.295Z,17.50
2023-10-28T07:49:22.371Z,17.90
2023-10-28T07:52:08.849Z,18.60
2023-10-28T07:57:41.172Z,17.90
2023-10-28T08:00:27.630Z,18.00
2023-10-28T08:06:09.853Z,17.90
2023-10-28T08:08:58.904Z,18.20
2023-10-28T08:11:45.107Z,18.00
2023-10-28T08:14:33.695Z,18.60
2023-10-28T08:20:06.356Z,17.80
2023-10-28T08:22:51.959Z,17.80
2023-10-28T08:31:10.822Z,17.60
2023-10-28T08:33:56.649Z,17.40
2023-10-28T08:36:45.345Z,18.00
2023-10-28T08:45:05.432Z,18.30
2023-10-28T08:47:51.999Z,17.80
2023-10-28T08:50:40.876Z,17.30
2023-10-28T08:56:20.799Z,17.60
2023-10-28T08:59:06.612Z,17.70
2023-10-28T09:04:38.585Z,18.70
2023-10-28T09:07:24.975Z,17.40
2023-10-28T09:10:11.834Z,17.30
2023-10-28T09:15:44.300Z,17.30
2023-10-28T09:18:40.676Z,17.40
2023-10-28T09:21:26.964Z,17.40
2023-10-28T09:24:13.150Z,17.90
2023-10-28T09:26:59.193Z,18.10
2023-10-28T09:32:34.413Z,17.70
2023-10-28T09:35:21.564Z,17.80
2023-10-28T09:38:09.232Z,17.90
2023-10-28T09:43:41.871Z,18.00
2023-10-28T09:46:32.711Z,18.60
2023-10-28T09:49:22.036Z,18.70
2023-10-28T09:52:08.777Z,18.90
2023-10-28T09:55:03.868Z,19.00
2023-10-28T09:57:56.714Z,19.40
2023-10-28T10:00:44.374Z,19.50
2023-10-28T10:03:45.693Z,19.50
2023-10-28T10:06:31.474Z,19.90
2023-10-28T10:09:21.042Z,19.80
2023-10-28T10:12:07.313Z,19.90
2023-10-28T10:14:54.481Z,20.00
2023-10-28T10:17:59.914Z,20.40
2023-10-28T10:20:45.950Z,19.90
2023-10-28T10:23:42.647Z,20.10
2023-10-28T10:26:33.005Z,19.90
2023-10-28T10:29:19.353Z,20.00
2023-10-28T10:32:18.920Z,19.40
2023-10-28T10:35:29.408Z,20.00
2023-10-28T10:38:16.037Z,19.50
2023-10-28T10:41:03.611Z,19.30
2023-10-28T10:43:49.264Z,19.60
2023-10-28T10:46:35.195Z,19.80
2023-10-28T10:52:09.622Z,19.60
2023-10-28T10:55:01.415Z,20.40
2023-10-28T10:57:47.438Z,20.20
2023-10-28T11:00:34.389Z,20.60
2023-10-28T11:03:21.407Z,20.40
2023-10-28T11:06:08.119Z,20.20
2023-10-28T11:08:53.966Z,20.60
2023-10-28T11:11:39.992Z,20.70
2023-10-28T11:14:26.095Z,20.60
2023-10-28T11:17:12.190Z,21.90
2023-10-28T11:20:14.083Z,20.90
2023-10-28T11:23:00.467Z,21.00
2023-10-28T11:25:50.084Z,21.20
2023-10-28T11:28:39.534Z,21.40
2023-10-28T11:31:25.859Z,21.50
2023-10-28T11:34:13.360Z,21.20
2023-10-28T11:37:00.976Z,21.40
2023-10-28T11:39:47.120Z,21.50
2023-10-28T11:42:35.024Z,21.30
2023-10-28T11:48:09.859Z,21.30
2023-10-28T11:50:55.922Z,21.40
2023-10-28T11:53:48.290Z,21.70
2023-10-28T11:56:34.886Z,21.70
2023-10-28T11:59:20.722Z,21.70
2023-10-28T12:02:06.554Z,21.50
2023-10-28T12:04:52.562Z,22.50
2023-10-28T12:07:38.316Z,21.60
2023-10-28T12:10:24.386Z,21.30
2023-10-28T12:13:14.488Z,21.60
2023-10-28T12:16:00.704Z,22.60
2023-10-28T12:18:46.316Z,22.50
2023-10-28T12:21:33.992Z,21.40
2023-10-28T12:24:21.226Z,21.10
2023-10-28T12:27:07.083Z,21.60
2023-10-28T12:29:53.365Z,21.20
2023-10-28T12:32:39.438Z,21.20
2023-10-28T12:35:25.282Z,20.90
2023-10-28T12:38:12.231Z,21.10
2023-10-28T12:40:58.407Z,21.40
2023-10-28T12:43:44.462Z,21.20
2023-10-28T12:46:31.948Z,21.50
2023-10-28T12:49:17.637Z,21.40
2023-10-28T12:52:03.923Z,20.80
2023-10-28T12:54:51.182Z,20.50
2023-10-28T12:57:37.142Z,22.10
2023-10-28T13:00:23.716Z,20.90
2023-10-28T13:03:10.150Z,20.80
2023-10-28T13:05:57.310Z,21.10
2023-10-28T13:08:44.296Z,20.80
2023-10-28T13:11:30.079Z,21.70
2023-10-28T13:14:20.060Z,21.20
2023-10-28T13:17:06.426Z,21.30
2023-10-28T13:19:52.379Z,21.40
2023-10-28T13:22:38.830Z,21.00
2023-10-28T13:25:25.259Z,21.00
2023-10-28T13:28:11.988Z,20.50
2023-10-28T13:30:57.773Z,20.80
2023-10-28T13:33:43.577Z,20.80
2023-10-28T13:39:15.732Z,21.30
2023-10-28T13:42:02.671Z,20.80
2023-10-28T13:44:48.426Z,21.10
2023-10-28T13:47:34.636Z,21.60
2023-10-28T13:50:20.312Z,21.00
2023-10-28T13:53:06.374Z,22.00
2023-10-28T13:55:57.214Z,20.60
2023-10-28T13:58:43.871Z,20.40
2023-10-28T14:04:17.918Z,20.40
2023-10-28T14:09:50.099Z,20.60
2023-10-28T14:12:35.731Z,20.80
2023-10-28T14:15:22.385Z,20.10
2023-10-28T14:18:09.677Z,20.50
2023-10-28T14:20:55.552Z,20.40
2023-10-28T14:23:41.353Z,19.90
2023-10-28T14:26:27.262Z,19.80
2023-10-28T14:29:13.229Z,19.90
2023-10-28T14:34:45.445Z,20.10
2023-10-28T14:37:31.907Z,20.50
2023-10-28T14:43:03.674Z,20.00
2023-10-28T14:48:36.301Z,19.90
2023-10-28T14:56:55.815Z,19.60
2023-10-28T14:59:48.346Z,20.10
2023-10-28T15:05:21.172Z,20.00
2023-10-28T15:27:35.648Z,19.50
2023-10-28T15:30:22.001Z,19.50
2023-10-28T15:33:08.573Z,19.20
2023-10-28T15:35:55.197Z,19.00
2023-10-28T15:38:42.133Z,19.00
2023-10-28T15:41:28.015Z,20.50
2023-10-28T15:44:14.468Z,19.30
2023-10-28T15:49:47.358Z,19.10
2023-10-28T15:52:34.188Z,19.60
2023-10-28T15:55:20.326Z,18.70
2023-10-28T15:58:06.035Z,19.30
2023-10-28T16:00:53.267Z,19.40
2023-10-28T16:06:25.772Z,19.10
2023-10-28T16:09:11.613Z,18.60
2023-10-28T16:17:32.580Z,18.40
2023-10-28T16:28:37.822Z,18.60
2023-10-28T16:31:23.776Z,18.30
2023-10-28T16:42:31.592Z,18.60
2023-10-28T16:45:18.928Z,18.20
2023-10-28T16:50:51.029Z,18.00
2023-10-28T16:53:36.996Z,18.10
2023-10-28T17:01:56.248Z,17.90
2023-10-28T17:07:28.192Z,17.90
2023-10-28T17:10:13.895Z,17.60
2023-10-28T17:13:01.952Z,18.10
2023-10-28T17:15:48.663Z,17.40
2023-10-28T17:18:35.438Z,17.70
2023-10-28T17:21:22.240Z,17.70
2023-10-28T17:24:08.840Z,17.60
2023-10-28T17:29:45.315Z,19.70
2023-10-28T17:32:31.331Z,17.50
2023-10-28T17:35:17.079Z,17.60
2023-10-28T17:38:04.215Z,17.40
2023-10-28T17:40:50.242Z,17.90
2023-10-28T17:43:37.977Z,17.30
2023-10-28T17:49:11.608Z,17.30
2023-10-28T17:51:57.491Z,17.40
2023-10-28T17:54:43.650Z,17.00
2023-10-28T17:57:29.716Z,17.70
2023-10-28T18:00:18.082Z,16.50
2023-10-28T18:05:50.417Z,17.20
2023-10-28T18:08:36.281Z,16.30
2023-10-28T18:11:23.256Z,17.00
2023-10-28T18:14:09.310Z,16.60
2023-10-28T18:16:55.811Z,16.40
2023-10-28T18:30:46.723Z,16.70
2023-10-28T18:33:34.232Z,16.80
2023-10-28T18:36:23.808Z,16.50
2023-10-28T18:39:10.238Z,16.60
2023-10-28T18:41:56.097Z,16.50
2023-10-28T18:47:29.048Z,17.00
2023-10-28T18:50:18.059Z,16.50
2023-10-28T18:55:49.805Z,16.60
2023-10-28T18:58:38.668Z,16.60
2023-10-28T19:01:27.220Z,16.70
2023-10-28T19:04:13.145Z,16.80
2023-10-28T19:09:45.172Z,17.10
2023-10-28T19:12:30.660Z,16.70
2023-10-28T19:15:16.617Z,17.20
2023-10-28T19:18:02.576Z,16.90
2023-10-28T19:23:34.620Z,16.50
2023-10-28T19:26:20.548Z,17.10
2023-10-28T19:29:08.557Z,16.80
2023-10-28T19:31:55.383Z,17.10
2023-10-28T19:34:43.087Z,17.40
2023-10-28T19:40:15.145Z,16.60
2023-10-28T19:45:48.758Z,16.70
2023-10-28T19:48:34.919Z,16.50
2023-10-28T19:51:22.575Z,16.50
2023-10-28T19:54:10.137Z,16.80
2023-10-28T19:56:57.058Z,16.60
2023-10-28T19:59:42.932Z,15.90
2023-10-28T20:05:17.740Z,16.50
2023-10-28T20:10:49.241Z,16.00
2023-10-28T20:13:35.419Z,16.30
2023-10-28T20:16:21.892Z,15.30
2023-10-28T20:19:08.454Z,16.20
2023-10-28T20:21:54.321Z,15.90
2023-10-28T20:24:43.028Z,15.50
2023-10-28T20:27:30.252Z,15.70
2023-10-28T20:30:19.797Z,16.30
2023-10-28T20:35:56.437Z,15.00
2023-10-28T20:38:42.158Z,15.60
2023-10-28T20:41:32.461Z,15.10
2023-10-28T20:44:19.947Z,15.30
2023-10-28T20:47:05.875Z,15.10
2023-10-28T20:49:53.701Z,14.90
2023-10-28T20:52:42.157Z,15.40
2023-10-28T20:55:28.856Z,15.20
2023-10-28T20:58:16.508Z,15.20
2023-10-28T21:01:03.939Z,15.40
2023-10-28T21:06:36.468Z,14.60
2023-10-28T21:09:23.957Z,15.40
2023-10-28T21:12:10.030Z,14.80
2023-10-28T21:14:56.016Z,14.80
2023-10-28T21:17:42.441Z,14.90
2023-10-28T21:23:14.379Z,15.20
2023-10-28T21:26:01.895Z,15.00
2023-10-28T21:28:49.415Z,14.50
2023-10-28T21:34:21.669Z,14.60
2023-10-28T21:37:07.230Z,15.30
2023-10-28T21:39:53.008Z,14.60
2023-10-28T21:42:38.883Z,14.60
2023-10-28T21:50:58.206Z,14.50
2023-10-28T21:53:45.159Z,14.50
2023-10-28T21:56:31.606Z,14.50
2023-10-28T21:59:17.356Z,14.30
2023-10-28T22:02:06.362Z,14.40
2023-10-28T22:04:53.062Z,14.40
2023-10-28T22:07:40.869Z,14.50
2023-10-28T22:10:32.789Z,14.30
2023-10-28T22:13:19.307Z,13.60
2023-10-28T22:24:24.754Z,13.70
2023-10-28T22:38:15.388Z,14.20
2023-10-28T22:43:47.411Z,14.50
2023-10-28T22:46:34.251Z,13.80
2023-10-28T22:49:20.188Z,14.40
2023-10-28T22:54:52.027Z,14.40
2023-10-28T23:06:01.467Z,14.20
2023-10-28T23:08:48.621Z,13.80
2023-10-28T23:11:37.707Z,13.60
2023-10-28T23:19:56.132Z,13.80
2023-10-28T23:22:42.274Z,14.20
2023-10-28T23:25:27.760Z,13.80
2023-10-28T23:33:46.654Z,14.80
2023-10-28T23:36:32.486Z,13.90
2023-10-28T23:42:04.712Z,13.90
2023-10-28T23:44:50.527Z,13.90
2023-10-28T23:47:36.507Z,13.90
2023-10-28T23:50:22.527Z,14.50
2023-10-28T23:53:08.653Z,14.50
2023-10-28T23:58:40.646Z,14.40
